sensor_id;sensor_type;location;lat;lon;timestamp;P1;durP1;ratioP1;P2;durP2;ratioP2
8219;SDS011;4151;51.110;7.020;2023-04-06T00:00:48;11.90;;;5.80;;
8219;SDS011;4151;51.110;7.020;2023-04-06T00:03:14;10.80;;;6.03;;
8219;SDS011;4151;51.110;7.020;2023-04-06T00:05:40;17.80;;;6.63;;
8219;SDS011;4151;51.110;7.020;2023-04-06T00:08:06;15.97;;;7.20;;
8219;SDS011;4151;51.110;7.020;2023-04-06T00:10:32;13.27;;;6.30;;
8219;SDS011;4151;51.110;7.020;2023-04-06T00:12:58;16.80;;;7.30;;
8219;SDS011;4151;51.110;7.020;2023-04-06T00:15:24;11.03;;;6.57;;
8219;SDS011;4151;51.110;7.020;2023-04-06T00:17:50;13.63;;;7.23;;
8219;SDS011;4151;51.110;7.020;2023-04-06T00:20:16;14.37;;;6.50;;
8219;SDS011;4151;51.110;7.020;2023-04-06T00:22:43;18.40;;;6.50;;
8219;SDS011;4151;51.110;7.020;2023-04-06T00:25:09;13.93;;;7.23;;
8219;SDS011;4151;51.110;7.020;2023-04-06T00:27:35;14.27;;;7.03;;
8219;SDS011;4151;51.110;7.020;2023-04-06T00:30:02;10.33;;;6.37;;
8219;SDS011;4151;51.110;7.020;2023-04-06T00:32:31;13.50;;;7.27;;
8219;SDS011;4151;51.110;7.020;2023-04-06T00:34:58;15.33;;;8.67;;
8219;SDS011;4151;51.110;7.020;2023-04-06T00:37:23;12.17;;;7.10;;
8219;SDS011;4151;51.110;7.020;2023-04-06T00:39:49;14.90;;;8.37;;
8219;SDS011;4151;51.110;7.020;2023-04-06T00:42:16;16.03;;;8.27;;
8219;SDS011;4151;51.110;7.020;2023-04-06T00:44:50;11.20;;;6.10;;
8219;SDS011;4151;51.110;7.020;2023-04-06T00:47:19;16.50;;;7.43;;
8219;SDS011;4151;51.110;7.020;2023-04-06T00:49:45;12.00;;;6.60;;
8219;SDS011;4151;51.110;7.020;2023-04-06T00:52:11;12.10;;;6.93;;
8219;SDS011;4151;51.110;7.020;2023-04-06T00:54:37;14.07;;;7.17;;
8219;SDS011;4151;51.110;7.020;2023-04-06T00:57:02;14.73;;;7.20;;
8219;SDS011;4151;51.110;7.020;2023-04-06T00:59:28;13.10;;;7.13;;
8219;SDS011;4151;51.110;7.020;2023-04-06T01:01:54;15.33;;;7.17;;
8219;SDS011;4151;51.110;7.020;2023-04-06T01:04:20;23.97;;;8.20;;
8219;SDS011;4151;51.110;7.020;2023-04-06T01:06:47;14.67;;;6.40;;
8219;SDS011;4151;51.110;7.020;2023-04-06T01:09:14;11.27;;;7.40;;
8219;SDS011;4151;51.110;7.020;2023-04-06T01:11:39;13.70;;;7.37;;
8219;SDS011;4151;51.110;7.020;2023-04-06T01:14:05;16.23;;;7.37;;
8219;SDS011;4151;51.110;7.020;2023-04-06T01:16:31;11.33;;;7.40;;
8219;SDS011;4151;51.110;7.020;2023-04-06T01:18:57;14.07;;;7.70;;
8219;SDS011;4151;51.110;7.020;2023-04-06T01:21:22;12.50;;;6.73;;
8219;SDS011;4151;51.110;7.020;2023-04-06T01:23:48;17.03;;;8.37;;
8219;SDS011;4151;51.110;7.020;2023-04-06T01:26:13;12.10;;;7.40;;
8219;SDS011;4151;51.110;7.020;2023-04-06T01:28:39;16.50;;;6.53;;
8219;SDS011;4151;51.110;7.020;2023-04-06T01:31:06;14.97;;;6.90;;
8219;SDS011;4151;51.110;7.020;2023-04-06T01:33:33;11.33;;;6.97;;
8219;SDS011;4151;51.110;7.020;2023-04-06T01:35:58;14.07;;;6.63;;
8219;SDS011;4151;51.110;7.020;2023-04-06T01:38:24;13.80;;;6.63;;
8219;SDS011;4151;51.110;7.020;2023-04-06T01:40:51;14.87;;;7.43;;
8219;SDS011;4151;51.110;7.020;2023-04-06T01:43:17;15.70;;;7.10;;
8219;SDS011;4151;51.110;7.020;2023-04-06T01:45:42;11.60;;;7.53;;
8219;SDS011;4151;51.110;7.020;2023-04-06T01:48:08;14.80;;;7.97;;
8219;SDS011;4151;51.110;7.020;2023-04-06T01:50:34;16.00;;;7.63;;
8219;SDS011;4151;51.110;7.020;2023-04-06T01:53:00;16.80;;;7.03;;
8219;SDS011;4151;51.110;7.020;2023-04-06T01:55:25;22.80;;;7.97;;
8219;SDS011;4151;51.110;7.020;2023-04-06T01:57:51;19.70;;;7.63;;
8219;SDS011;4151;51.110;7.020;2023-04-06T02:00:17;11.13;;;6.73;;
8219;SDS011;4151;51.110;7.020;2023-04-06T02:02:42;16.00;;;7.03;;
8219;SDS011;4151;51.110;7.020;2023-04-06T02:05:08;13.37;;;7.70;;
8219;SDS011;4151;51.110;7.020;2023-04-06T02:07:34;14.90;;;7.63;;
8219;SDS011;4151;51.110;7.020;2023-04-06T02:09:59;13.57;;;7.63;;
8219;SDS011;4151;51.110;7.020;2023-04-06T02:12:25;15.13;;;7.10;;
8219;SDS011;4151;51.110;7.020;2023-04-06T02:14:50;15.43;;;7.40;;
8219;SDS011;4151;51.110;7.020;2023-04-06T02:17:16;14.70;;;7.77;;
8219;SDS011;4151;51.110;7.020;2023-04-06T02:19:42;14.07;;;7.70;;
8219;SDS011;4151;51.110;7.020;2023-04-06T02:22:08;15.33;;;7.40;;
8219;SDS011;4151;51.110;7.020;2023-04-06T02:24:34;10.67;;;6.83;;
8219;SDS011;4151;51.110;7.020;2023-04-06T02:27:00;14.10;;;7.57;;
8219;SDS011;4151;51.110;7.020;2023-04-06T02:29:26;13.30;;;7.50;;
8219;SDS011;4151;51.110;7.020;2023-04-06T02:31:51;18.00;;;8.60;;
8219;SDS011;4151;51.110;7.020;2023-04-06T02:34:17;13.60;;;7.70;;
8219;SDS011;4151;51.110;7.020;2023-04-06T02:36:44;14.73;;;8.40;;
8219;SDS011;4151;51.110;7.020;2023-04-06T02:39:10;13.33;;;7.50;;
8219;SDS011;4151;51.110;7.020;2023-04-06T02:41:36;13.37;;;7.73;;
8219;SDS011;4151;51.110;7.020;2023-04-06T02:44:02;13.10;;;6.90;;
8219;SDS011;4151;51.110;7.020;2023-04-06T02:46:28;14.80;;;7.47;;
8219;SDS011;4151;51.110;7.020;2023-04-06T02:48:53;14.00;;;7.30;;
8219;SDS011;4151;51.110;7.020;2023-04-06T02:51:19;15.23;;;7.50;;
8219;SDS011;4151;51.110;7.020;2023-04-06T02:53:45;15.00;;;6.63;;
8219;SDS011;4151;51.110;7.020;2023-04-06T02:56:11;18.67;;;8.20;;
8219;SDS011;4151;51.110;7.020;2023-04-06T02:58:37;12.40;;;6.83;;
8219;SDS011;4151;51.110;7.020;2023-04-06T03:01:02;12.80;;;7.17;;
8219;SDS011;4151;51.110;7.020;2023-04-06T03:03:28;16.37;;;7.37;;
8219;SDS011;4151;51.110;7.020;2023-04-06T03:05:55;13.60;;;7.43;;
8219;SDS011;4151;51.110;7.020;2023-04-06T03:08:23;17.57;;;8.40;;
8219;SDS011;4151;51.110;7.020;2023-04-06T03:10:49;15.13;;;7.07;;
8219;SDS011;4151;51.110;7.020;2023-04-06T03:13:15;17.67;;;7.30;;
8219;SDS011;4151;51.110;7.020;2023-04-06T03:15:40;14.13;;;6.90;;
8219;SDS011;4151;51.110;7.020;2023-04-06T03:18:06;18.83;;;7.90;;
8219;SDS011;4151;51.110;7.020;2023-04-06T03:20:31;16.07;;;7.13;;
8219;SDS011;4151;51.110;7.020;2023-04-06T03:22:57;14.07;;;7.97;;
8219;SDS011;4151;51.110;7.020;2023-04-06T03:25:23;19.30;;;7.70;;
8219;SDS011;4151;51.110;7.020;2023-04-06T03:27:49;12.20;;;6.43;;
8219;SDS011;4151;51.110;7.020;2023-04-06T03:30:15;14.63;;;7.23;;
8219;SDS011;4151;51.110;7.020;2023-04-06T03:32:42;19.77;;;8.60;;
8219;SDS011;4151;51.110;7.020;2023-04-06T03:35:08;15.87;;;7.67;;
8219;SDS011;4151;51.110;7.020;2023-04-06T03:37:34;20.87;;;7.43;;
8219;SDS011;4151;51.110;7.020;2023-04-06T03:40:00;14.73;;;6.90;;
8219;SDS011;4151;51.110;7.020;2023-04-06T03:42:26;14.23;;;7.53;;
8219;SDS011;4151;51.110;7.020;2023-04-06T03:44:51;14.43;;;8.23;;
8219;SDS011;4151;51.110;7.020;2023-04-06T03:47:17;16.70;;;7.20;;
8219;SDS011;4151;51.110;7.020;2023-04-06T03:49:43;14.27;;;7.20;;
8219;SDS011;4151;51.110;7.020;2023-04-06T03:52:08;16.93;;;7.10;;
8219;SDS011;4151;51.110;7.020;2023-04-06T03:54:34;15.33;;;7.50;;
8219;SDS011;4151;51.110;7.020;2023-04-06T03:57:00;15.27;;;8.50;;
8219;SDS011;4151;51.110;7.020;2023-04-06T03:59:26;17.60;;;7.57;;
8219;SDS011;4151;51.110;7.020;2023-04-06T04:01:51;18.07;;;7.80;;
8219;SDS011;4151;51.110;7.020;2023-04-06T04:04:17;21.83;;;8.53;;
8219;SDS011;4151;51.110;7.020;2023-04-06T04:06:42;15.83;;;8.00;;
8219;SDS011;4151;51.110;7.020;2023-04-06T04:09:08;12.30;;;6.90;;
8219;SDS011;4151;51.110;7.020;2023-04-06T04:11:34;17.93;;;7.40;;
8219;SDS011;4151;51.110;7.020;2023-04-06T04:13:59;13.13;;;7.40;;
8219;SDS011;4151;51.110;7.020;2023-04-06T04:16:25;11.53;;;6.87;;
8219;SDS011;4151;51.110;7.020;2023-04-06T04:18:51;21.53;;;7.90;;
8219;SDS011;4151;51.110;7.020;2023-04-06T04:21:16;14.37;;;6.60;;
8219;SDS011;4151;51.110;7.020;2023-04-06T04:23:42;13.90;;;6.80;;
8219;SDS011;4151;51.110;7.020;2023-04-06T04:26:07;14.77;;;8.07;;
8219;SDS011;4151;51.110;7.020;2023-04-06T04:28:33;15.30;;;7.80;;
8219;SDS011;4151;51.110;7.020;2023-04-06T04:30:59;14.77;;;7.30;;
8219;SDS011;4151;51.110;7.020;2023-04-06T04:33:24;14.30;;;7.10;;
8219;SDS011;4151;51.110;7.020;2023-04-06T04:35:50;20.47;;;8.23;;
8219;SDS011;4151;51.110;7.020;2023-04-06T04:38:16;16.40;;;8.20;;
8219;SDS011;4151;51.110;7.020;2023-04-06T04:40:41;15.60;;;7.70;;
8219;SDS011;4151;51.110;7.020;2023-04-06T04:43:07;18.70;;;8.03;;
8219;SDS011;4151;51.110;7.020;2023-04-06T04:45:33;17.10;;;8.40;;
8219;SDS011;4151;51.110;7.020;2023-04-06T04:47:58;14.40;;;7.40;;
8219;SDS011;4151;51.110;7.020;2023-04-06T04:50:24;14.83;;;7.53;;
8219;SDS011;4151;51.110;7.020;2023-04-06T04:52:50;14.67;;;7.87;;
8219;SDS011;4151;51.110;7.020;2023-04-06T04:55:15;24.97;;;8.67;;
8219;SDS011;4151;51.110;7.020;2023-04-06T04:57:42;14.37;;;7.87;;
8219;SDS011;4151;51.110;7.020;2023-04-06T05:00:08;16.10;;;7.33;;
8219;SDS011;4151;51.110;7.020;2023-04-06T05:02:34;13.07;;;7.63;;
8219;SDS011;4151;51.110;7.020;2023-04-06T05:04:59;16.53;;;7.70;;
8219;SDS011;4151;51.110;7.020;2023-04-06T05:07:25;21.60;;;10.27;;
8219;SDS011;4151;51.110;7.020;2023-04-06T05:09:51;16.23;;;8.50;;
8219;SDS011;4151;51.110;7.020;2023-04-06T05:12:18;13.70;;;8.13;;
8219;SDS011;4151;51.110;7.020;2023-04-06T05:14:44;16.10;;;8.13;;
8219;SDS011;4151;51.110;7.020;2023-04-06T05:17:10;20.97;;;9.83;;
8219;SDS011;4151;51.110;7.020;2023-04-06T05:19:36;21.00;;;8.73;;
8219;SDS011;4151;51.110;7.020;2023-04-06T05:22:01;16.20;;;7.43;;
8219;SDS011;4151;51.110;7.020;2023-04-06T05:24:27;19.93;;;9.70;;
8219;SDS011;4151;51.110;7.020;2023-04-06T05:26:53;19.13;;;8.73;;
8219;SDS011;4151;51.110;7.020;2023-04-06T05:29:18;26.20;;;11.97;;
8219;SDS011;4151;51.110;7.020;2023-04-06T05:31:45;20.80;;;9.00;;
8219;SDS011;4151;51.110;7.020;2023-04-06T05:34:11;18.73;;;8.73;;
8219;SDS011;4151;51.110;7.020;2023-04-06T05:36:37;15.00;;;7.60;;
8219;SDS011;4151;51.110;7.020;2023-04-06T05:39:03;13.80;;;8.30;;
8219;SDS011;4151;51.110;7.020;2023-04-06T05:41:28;13.13;;;7.40;;
8219;SDS011;4151;51.110;7.020;2023-04-06T05:43:54;10.97;;;6.30;;
8219;SDS011;4151;51.110;7.020;2023-04-06T05:46:20;11.70;;;6.33;;
8219;SDS011;4151;51.110;7.020;2023-04-06T05:48:46;13.20;;;7.27;;
8219;SDS011;4151;51.110;7.020;2023-04-06T05:51:11;19.87;;;7.37;;
8219;SDS011;4151;51.110;7.020;2023-04-06T05:53:37;12.47;;;6.87;;
8219;SDS011;4151;51.110;7.020;2023-04-06T05:56:03;11.67;;;7.13;;
8219;SDS011;4151;51.110;7.020;2023-04-06T05:58:29;11.90;;;6.07;;
8219;SDS011;4151;51.110;7.020;2023-04-06T06:00:58;21.60;;;6.80;;
8219;SDS011;4151;51.110;7.020;2023-04-06T06:03:24;10.83;;;5.50;;
8219;SDS011;4151;51.110;7.020;2023-04-06T06:05:50;9.70;;;6.50;;
8219;SDS011;4151;51.110;7.020;2023-04-06T06:08:15;13.13;;;6.30;;
8219;SDS011;4151;51.110;7.020;2023-04-06T06:10:41;9.03;;;5.20;;
8219;SDS011;4151;51.110;7.020;2023-04-06T06:13:07;7.70;;;4.53;;
8219;SDS011;4151;51.110;7.020;2023-04-06T06:15:32;14.20;;;6.27;;
8219;SDS011;4151;51.110;7.020;2023-04-06T06:17:58;10.87;;;5.10;;
8219;SDS011;4151;51.110;7.020;2023-04-06T06:20:23;10.50;;;4.87;;
8219;SDS011;4151;51.110;7.020;2023-04-06T06:22:49;10.03;;;5.53;;
8219;SDS011;4151;51.110;7.020;2023-04-06T06:25:15;10.33;;;4.97;;
8219;SDS011;4151;51.110;7.020;2023-04-06T06:27:41;9.33;;;5.63;;
8219;SDS011;4151;51.110;7.020;2023-04-06T06:30:07;6.77;;;4.70;;
8219;SDS011;4151;51.110;7.020;2023-04-06T06:32:33;14.73;;;4.93;;
8219;SDS011;4151;51.110;7.020;2023-04-06T06:34:58;11.93;;;5.30;;
8219;SDS011;4151;51.110;7.020;2023-04-06T06:37:24;16.53;;;6.30;;
8219;SDS011;4151;51.110;7.020;2023-04-06T06:39:50;8.07;;;4.90;;
8219;SDS011;4151;51.110;7.020;2023-04-06T06:42:15;10.20;;;5.40;;
8219;SDS011;4151;51.110;7.020;2023-04-06T06:44:41;9.13;;;4.80;;
8219;SDS011;4151;51.110;7.020;2023-04-06T06:47:06;9.43;;;5.17;;
8219;SDS011;4151;51.110;7.020;2023-04-06T06:49:32;9.23;;;5.10;;
8219;SDS011;4151;51.110;7.020;2023-04-06T06:51:57;10.20;;;5.87;;
8219;SDS011;4151;51.110;7.020;2023-04-06T06:54:23;7.90;;;5.23;;
8219;SDS011;4151;51.110;7.020;2023-04-06T06:56:49;9.10;;;5.60;;
8219;SDS011;4151;51.110;7.020;2023-04-06T06:59:14;10.73;;;5.37;;
8219;SDS011;4151;51.110;7.020;2023-04-06T07:01:41;9.03;;;5.70;;
8219;SDS011;4151;51.110;7.020;2023-04-06T07:04:06;9.70;;;5.63;;
8219;SDS011;4151;51.110;7.020;2023-04-06T07:06:34;9.00;;;5.07;;
8219;SDS011;4151;51.110;7.020;2023-04-06T07:09:00;12.23;;;6.20;;
8219;SDS011;4151;51.110;7.020;2023-04-06T07:11:28;11.17;;;5.87;;
8219;SDS011;4151;51.110;7.020;2023-04-06T07:13:54;12.33;;;6.00;;
8219;SDS011;4151;51.110;7.020;2023-04-06T07:16:19;9.80;;;5.50;;
8219;SDS011;4151;51.110;7.020;2023-04-06T07:18:45;7.90;;;4.93;;
8219;SDS011;4151;51.110;7.020;2023-04-06T07:21:11;9.83;;;5.40;;
8219;SDS011;4151;51.110;7.020;2023-04-06T07:23:37;11.63;;;6.00;;
8219;SDS011;4151;51.110;7.020;2023-04-06T07:26:02;9.40;;;5.40;;
8219;SDS011;4151;51.110;7.020;2023-04-06T07:28:28;12.33;;;6.30;;
8219;SDS011;4151;51.110;7.020;2023-04-06T07:30:54;11.67;;;5.80;;
8219;SDS011;4151;51.110;7.020;2023-04-06T07:33:19;9.87;;;6.00;;
8219;SDS011;4151;51.110;7.020;2023-04-06T07:35:45;14.63;;;5.90;;
8219;SDS011;4151;51.110;7.020;2023-04-06T07:38:11;10.13;;;6.23;;
8219;SDS011;4151;51.110;7.020;2023-04-06T07:40:36;10.57;;;5.80;;
8219;SDS011;4151;51.110;7.020;2023-04-06T07:43:02;11.53;;;5.60;;
8219;SDS011;4151;51.110;7.020;2023-04-06T07:45:28;13.00;;;6.00;;
8219;SDS011;4151;51.110;7.020;2023-04-06T07:47:54;16.37;;;6.00;;
8219;SDS011;4151;51.110;7.020;2023-04-06T07:50:20;13.13;;;6.23;;
8219;SDS011;4151;51.110;7.020;2023-04-06T07:52:46;16.47;;;6.97;;
8219;SDS011;4151;51.110;7.020;2023-04-06T07:55:11;12.82;;;6.93;;
8219;SDS011;4151;51.110;7.020;2023-04-06T07:57:37;17.03;;;6.20;;
8219;SDS011;4151;51.110;7.020;2023-04-06T08:00:02;16.70;;;5.90;;
8219;SDS011;4151;51.110;7.020;2023-04-06T08:02:29;11.33;;;6.43;;
8219;SDS011;4151;51.110;7.020;2023-04-06T08:04:56;9.67;;;5.90;;
8219;SDS011;4151;51.110;7.020;2023-04-06T08:07:22;9.50;;;6.07;;
8219;SDS011;4151;51.110;7.020;2023-04-06T08:09:47;13.20;;;6.20;;
8219;SDS011;4151;51.110;7.020;2023-04-06T08:12:14;12.00;;;7.57;;
8219;SDS011;4151;51.110;7.020;2023-04-06T08:14:40;21.47;;;6.73;;
8219;SDS011;4151;51.110;7.020;2023-04-06T08:17:05;14.63;;;6.57;;
8219;SDS011;4151;51.110;7.020;2023-04-06T08:19:31;15.73;;;6.73;;
8219;SDS011;4151;51.110;7.020;2023-04-06T08:21:57;12.73;;;6.90;;
8219;SDS011;4151;51.110;7.020;2023-04-06T08:24:22;12.97;;;6.80;;
8219;SDS011;4151;51.110;7.020;2023-04-06T08:26:48;14.47;;;7.00;;
8219;SDS011;4151;51.110;7.020;2023-04-06T08:29:13;12.13;;;7.50;;
8219;SDS011;4151;51.110;7.020;2023-04-06T08:31:39;16.70;;;7.70;;
8219;SDS011;4151;51.110;7.020;2023-04-06T08:34:05;12.47;;;7.47;;
8219;SDS011;4151;51.110;7.020;2023-04-06T08:36:31;12.37;;;6.43;;
8219;SDS011;4151;51.110;7.020;2023-04-06T08:38:58;14.27;;;6.67;;
8219;SDS011;4151;51.110;7.020;2023-04-06T08:41:25;16.50;;;8.23;;
8219;SDS011;4151;51.110;7.020;2023-04-06T08:43:54;14.60;;;7.80;;
8219;SDS011;4151;51.110;7.020;2023-04-06T08:46:23;17.67;;;7.40;;
8219;SDS011;4151;51.110;7.020;2023-04-06T08:48:55;16.67;;;7.97;;
8219;SDS011;4151;51.110;7.020;2023-04-06T08:51:25;13.30;;;6.90;;
8219;SDS011;4151;51.110;7.020;2023-04-06T08:53:53;14.00;;;7.50;;
8219;SDS011;4151;51.110;7.020;2023-04-06T08:56:21;17.67;;;8.40;;
8219;SDS011;4151;51.110;7.020;2023-04-06T08:58:47;15.63;;;7.80;;
8219;SDS011;4151;51.110;7.020;2023-04-06T09:01:14;11.77;;;6.57;;
8219;SDS011;4151;51.110;7.020;2023-04-06T09:03:45;18.47;;;9.07;;
8219;SDS011;4151;51.110;7.020;2023-04-06T09:06:13;17.03;;;8.50;;
8219;SDS011;4151;51.110;7.020;2023-04-06T09:08:39;17.80;;;8.50;;
8219;SDS011;4151;51.110;7.020;2023-04-06T09:11:06;20.87;;;8.43;;
8219;SDS011;4151;51.110;7.020;2023-04-06T09:13:44;15.67;;;8.40;;
8219;SDS011;4151;51.110;7.020;2023-04-06T09:16:17;15.37;;;7.67;;
8219;SDS011;4151;51.110;7.020;2023-04-06T09:18:44;18.00;;;8.87;;
8219;SDS011;4151;51.110;7.020;2023-04-06T09:21:10;15.70;;;8.27;;
8219;SDS011;4151;51.110;7.020;2023-04-06T09:23:36;15.23;;;7.97;;
8219;SDS011;4151;51.110;7.020;2023-04-06T09:26:15;16.20;;;8.90;;
8219;SDS011;4151;51.110;7.020;2023-04-06T09:31:16;15.90;;;9.27;;
8219;SDS011;4151;51.110;7.020;2023-04-06T09:33:46;19.03;;;8.20;;
8219;SDS011;4151;51.110;7.020;2023-04-06T09:36:12;21.43;;;10.07;;
8219;SDS011;4151;51.110;7.020;2023-04-06T09:38:39;19.17;;;8.60;;
8219;SDS011;4151;51.110;7.020;2023-04-06T09:41:23;21.50;;;9.17;;
8219;SDS011;4151;51.110;7.020;2023-04-06T09:43:51;22.07;;;8.90;;
8219;SDS011;4151;51.110;7.020;2023-04-06T09:46:17;19.00;;;9.00;;
8219;SDS011;4151;51.110;7.020;2023-04-06T09:48:46;20.47;;;9.73;;
8219;SDS011;4151;51.110;7.020;2023-04-06T09:51:12;21.73;;;10.23;;
8219;SDS011;4151;51.110;7.020;2023-04-06T09:53:41;15.97;;;8.70;;
8219;SDS011;4151;51.110;7.020;2023-04-06T09:56:11;21.27;;;9.83;;
8219;SDS011;4151;51.110;7.020;2023-04-06T09:58:41;25.20;;;10.17;;
8219;SDS011;4151;51.110;7.020;2023-04-06T10:01:12;36.93;;;8.73;;
8219;SDS011;4151;51.110;7.020;2023-04-06T10:03:52;20.77;;;9.77;;
8219;SDS011;4151;51.110;7.020;2023-04-06T10:06:28;23.30;;;10.23;;
8219;SDS011;4151;51.110;7.020;2023-04-06T10:08:58;16.70;;;8.70;;
8219;SDS011;4151;51.110;7.020;2023-04-06T10:11:26;19.10;;;9.10;;
8219;SDS011;4151;51.110;7.020;2023-04-06T10:13:52;17.63;;;8.30;;
8219;SDS011;4151;51.110;7.020;2023-04-06T10:16:20;20.53;;;9.30;;
8219;SDS011;4151;51.110;7.020;2023-04-06T10:18:48;16.10;;;9.50;;
8219;SDS011;4151;51.110;7.020;2023-04-06T10:21:20;17.13;;;9.53;;
8219;SDS011;4151;51.110;7.020;2023-04-06T10:23:49;18.63;;;10.67;;
8219;SDS011;4151;51.110;7.020;2023-04-06T10:26:20;21.73;;;9.40;;
8219;SDS011;4151;51.110;7.020;2023-04-06T10:28:47;22.47;;;10.27;;
8219;SDS011;4151;51.110;7.020;2023-04-06T10:31:14;21.57;;;10.40;;
8219;SDS011;4151;51.110;7.020;2023-04-06T10:33:40;17.47;;;10.10;;
8219;SDS011;4151;51.110;7.020;2023-04-06T10:36:09;23.63;;;12.57;;
8219;SDS011;4151;51.110;7.020;2023-04-06T10:38:40;30.47;;;13.40;;
8219;SDS011;4151;51.110;7.020;2023-04-06T10:41:07;20.60;;;11.27;;
8219;SDS011;4151;51.110;7.020;2023-04-06T10:43:35;21.20;;;10.07;;
8219;SDS011;4151;51.110;7.020;2023-04-06T10:46:01;26.27;;;12.33;;
8219;SDS011;4151;51.110;7.020;2023-04-06T10:48:40;27.87;;;12.33;;
8219;SDS011;4151;51.110;7.020;2023-04-06T10:51:12;29.50;;;12.87;;
8219;SDS011;4151;51.110;7.020;2023-04-06T10:53:39;26.07;;;12.80;;
8219;SDS011;4151;51.110;7.020;2023-04-06T10:56:11;32.40;;;12.70;;
8219;SDS011;4151;51.110;7.020;2023-04-06T10:58:37;25.83;;;13.10;;
8219;SDS011;4151;51.110;7.020;2023-04-06T11:01:03;25.47;;;12.23;;
8219;SDS011;4151;51.110;7.020;2023-04-06T11:03:29;24.23;;;12.03;;
8219;SDS011;4151;51.110;7.020;2023-04-06T11:05:55;27.87;;;11.10;;
8219;SDS011;4151;51.110;7.020;2023-04-06T11:08:30;25.77;;;11.77;;
8219;SDS011;4151;51.110;7.020;2023-04-06T11:11:04;21.50;;;12.13;;
8219;SDS011;4151;51.110;7.020;2023-04-06T11:16:23;24.90;;;10.97;;
8219;SDS011;4151;51.110;7.020;2023-04-06T11:18:54;38.47;;;12.30;;
8219;SDS011;4151;51.110;7.020;2023-04-06T11:21:34;26.17;;;11.90;;
8219;SDS011;4151;51.110;7.020;2023-04-06T11:24:15;18.13;;;9.77;;
8219;SDS011;4151;51.110;7.020;2023-04-06T11:26:43;26.17;;;11.30;;
8219;SDS011;4151;51.110;7.020;2023-04-06T11:29:17;30.40;;;11.80;;
8219;SDS011;4151;51.110;7.020;2023-04-06T11:31:45;20.90;;;10.67;;
8219;SDS011;4151;51.110;7.020;2023-04-06T11:34:13;25.30;;;11.50;;
8219;SDS011;4151;51.110;7.020;2023-04-06T11:36:43;28.03;;;13.03;;
8219;SDS011;4151;51.110;7.020;2023-04-06T11:39:11;24.90;;;12.13;;
8219;SDS011;4151;51.110;7.020;2023-04-06T11:41:37;30.13;;;12.70;;
8219;SDS011;4151;51.110;7.020;2023-04-06T11:44:03;26.67;;;11.50;;
8219;SDS011;4151;51.110;7.020;2023-04-06T11:46:31;23.67;;;11.87;;
8219;SDS011;4151;51.110;7.020;2023-04-06T11:49:00;21.17;;;11.90;;
8219;SDS011;4151;51.110;7.020;2023-04-06T11:51:26;23.23;;;10.43;;
8219;SDS011;4151;51.110;7.020;2023-04-06T11:53:52;24.40;;;12.10;;
8219;SDS011;4151;51.110;7.020;2023-04-06T11:56:23;21.27;;;10.63;;
8219;SDS011;4151;51.110;7.020;2023-04-06T11:58:50;21.77;;;11.20;;
8219;SDS011;4151;51.110;7.020;2023-04-06T12:01:15;21.20;;;11.10;;
8219;SDS011;4151;51.110;7.020;2023-04-06T12:03:41;22.33;;;11.80;;
8219;SDS011;4151;51.110;7.020;2023-04-06T12:06:06;22.00;;;10.50;;
8219;SDS011;4151;51.110;7.020;2023-04-06T12:08:32;26.37;;;12.10;;
8219;SDS011;4151;51.110;7.020;2023-04-06T12:10:58;22.07;;;10.47;;
8219;SDS011;4151;51.110;7.020;2023-04-06T12:13:24;30.67;;;12.23;;
8219;SDS011;4151;51.110;7.020;2023-04-06T12:15:50;25.30;;;10.60;;
8219;SDS011;4151;51.110;7.020;2023-04-06T12:18:15;21.67;;;10.30;;
8219;SDS011;4151;51.110;7.020;2023-04-06T12:20:41;18.57;;;10.60;;
8219;SDS011;4151;51.110;7.020;2023-04-06T12:23:06;24.93;;;10.83;;
8219;SDS011;4151;51.110;7.020;2023-04-06T12:25:32;21.10;;;10.97;;
8219;SDS011;4151;51.110;7.020;2023-04-06T12:27:58;23.00;;;10.57;;
8219;SDS011;4151;51.110;7.020;2023-04-06T12:30:23;25.57;;;10.73;;
8219;SDS011;4151;51.110;7.020;2023-04-06T12:32:49;23.43;;;11.93;;
8219;SDS011;4151;51.110;7.020;2023-04-06T12:35:15;20.93;;;11.00;;
8219;SDS011;4151;51.110;7.020;2023-04-06T12:37:41;21.80;;;11.17;;
8219;SDS011;4151;51.110;7.020;2023-04-06T12:40:07;18.40;;;10.10;;
8219;SDS011;4151;51.110;7.020;2023-04-06T12:42:35;19.50;;;9.60;;
8219;SDS011;4151;51.110;7.020;2023-04-06T12:45:01;23.17;;;10.70;;
8219;SDS011;4151;51.110;7.020;2023-04-06T12:47:27;21.80;;;10.27;;
8219;SDS011;4151;51.110;7.020;2023-04-06T12:49:52;19.50;;;10.50;;
8219;SDS011;4151;51.110;7.020;2023-04-06T12:52:19;21.43;;;11.03;;
8219;SDS011;4151;51.110;7.020;2023-04-06T12:54:45;24.60;;;11.50;;
8219;SDS011;4151;51.110;7.020;2023-04-06T12:57:12;24.13;;;10.47;;
8219;SDS011;4151;51.110;7.020;2023-04-06T12:59:37;27.73;;;11.73;;
8219;SDS011;4151;51.110;7.020;2023-04-06T13:02:03;22.00;;;11.07;;
8219;SDS011;4151;51.110;7.020;2023-04-06T13:04:29;24.47;;;10.57;;
8219;SDS011;4151;51.110;7.020;2023-04-06T13:06:55;21.07;;;10.10;;
8219;SDS011;4151;51.110;7.020;2023-04-06T13:09:20;21.10;;;10.23;;
8219;SDS011;4151;51.110;7.020;2023-04-06T13:11:46;24.47;;;11.27;;
8219;SDS011;4151;51.110;7.020;2023-04-06T13:14:12;25.20;;;10.67;;
8219;SDS011;4151;51.110;7.020;2023-04-06T13:16:37;21.33;;;8.97;;
8219;SDS011;4151;51.110;7.020;2023-04-06T13:19:03;20.67;;;9.63;;
8219;SDS011;4151;51.110;7.020;2023-04-06T13:21:28;19.27;;;9.60;;
8219;SDS011;4151;51.110;7.020;2023-04-06T13:23:55;22.37;;;9.57;;
8219;SDS011;4151;51.110;7.020;2023-04-06T13:26:20;25.07;;;10.30;;
8219;SDS011;4151;51.110;7.020;2023-04-06T13:28:46;25.77;;;10.13;;
8219;SDS011;4151;51.110;7.020;2023-04-06T13:31:12;29.53;;;9.43;;
8219;SDS011;4151;51.110;7.020;2023-04-06T13:33:38;17.57;;;9.53;;
8219;SDS011;4151;51.110;7.020;2023-04-06T13:36:05;17.60;;;8.07;;
8219;SDS011;4151;51.110;7.020;2023-04-06T13:38:32;18.50;;;7.90;;
8219;SDS011;4151;51.110;7.020;2023-04-06T13:40:58;19.00;;;8.30;;
8219;SDS011;4151;51.110;7.020;2023-04-06T13:43:24;17.77;;;7.93;;
8219;SDS011;4151;51.110;7.020;2023-04-06T13:45:52;16.10;;;8.17;;
8219;SDS011;4151;51.110;7.020;2023-04-06T13:48:20;18.07;;;7.23;;
8219;SDS011;4151;51.110;7.020;2023-04-06T13:50:46;14.03;;;7.13;;
8219;SDS011;4151;51.110;7.020;2023-04-06T13:53:11;15.60;;;7.00;;
8219;SDS011;4151;51.110;7.020;2023-04-06T13:55:37;12.00;;;5.80;;
8219;SDS011;4151;51.110;7.020;2023-04-06T13:58:03;18.10;;;7.70;;
8219;SDS011;4151;51.110;7.020;2023-04-06T14:00:28;13.53;;;6.90;;
8219;SDS011;4151;51.110;7.020;2023-04-06T14:02:54;14.43;;;7.43;;
8219;SDS011;4151;51.110;7.020;2023-04-06T14:05:23;13.40;;;8.00;;
8219;SDS011;4151;51.110;7.020;2023-04-06T14:07:49;14.23;;;8.13;;
8219;SDS011;4151;51.110;7.020;2023-04-06T14:10:15;15.63;;;8.00;;
8219;SDS011;4151;51.110;7.020;2023-04-06T14:12:41;13.53;;;7.00;;
8219;SDS011;4151;51.110;7.020;2023-04-06T14:15:08;13.33;;;6.30;;
8219;SDS011;4151;51.110;7.020;2023-04-06T14:17:35;14.70;;;6.67;;
8219;SDS011;4151;51.110;7.020;2023-04-06T14:20:01;17.60;;;7.10;;
8219;SDS011;4151;51.110;7.020;2023-04-06T14:22:27;10.00;;;6.10;;
8219;SDS011;4151;51.110;7.020;2023-04-06T14:24:53;13.37;;;7.10;;
8219;SDS011;4151;51.110;7.020;2023-04-06T14:27:18;11.70;;;6.33;;
8219;SDS011;4151;51.110;7.020;2023-04-06T14:29:44;14.27;;;7.37;;
8219;SDS011;4151;51.110;7.020;2023-04-06T14:32:09;15.10;;;7.93;;
8219;SDS011;4151;51.110;7.020;2023-04-06T14:34:38;13.33;;;7.07;;
8219;SDS011;4151;51.110;7.020;2023-04-06T14:37:03;19.60;;;6.77;;
8219;SDS011;4151;51.110;7.020;2023-04-06T14:39:29;10.90;;;6.07;;
8219;SDS011;4151;51.110;7.020;2023-04-06T14:41:55;12.30;;;6.23;;
8219;SDS011;4151;51.110;7.020;2023-04-06T14:44:20;15.43;;;7.40;;
8219;SDS011;4151;51.110;7.020;2023-04-06T14:46:46;10.73;;;5.70;;
8219;SDS011;4151;51.110;7.020;2023-04-06T14:49:12;9.37;;;5.60;;
8219;SDS011;4151;51.110;7.020;2023-04-06T15:00:59;11.83;;;5.57;;
8219;SDS011;4151;51.110;7.020;2023-04-06T15:03:25;12.70;;;5.77;;
8219;SDS011;4151;51.110;7.020;2023-04-06T15:05:52;11.17;;;5.43;;
8219;SDS011;4151;51.110;7.020;2023-04-06T15:08:18;11.57;;;5.77;;
8219;SDS011;4151;51.110;7.020;2023-04-06T15:10:46;10.60;;;5.90;;